Pahrump, Nevada
Current Conditions -  °F | °C
As of 10:52 AM on Monday 20 Oct 2014 (Local Time) from KDRA Reporting Station
Clear Clear  
Wind Chill: 78°   Ceiling: Unl
Heat Index: 78°   Visibility: 10mi
Dew Point: 34°   Wind: 0mph
Humidity: 20%   Direction: NA
Pressure: 29.97"   Gusts: NA
Location:  36.21°N, 115.99°W
Report Text: KDRA 201752Z AUTO 00000KT 10SM CLR 26/01 A2997 RMK AO2 SLP112 T02560011 10256 20111 50002
Loading
Personal Weather Stations






























Interactive Weather Map
Tropical Storm Tracking
New forecast layout! Learn more

10-Day Weather Forecast

Advertisements
Track Severe Weather on mobile